Observation data for Levelland on 05/23/2019      Previous  Date       Current Mesonet Observations  Soil Data  Daily Summary Page  Observations in Plain Language
KLD1 230500Z 14017KT 24/15 A2982 RMK A01 T02350149  RH  061%=      5-min Rain = 0
KLD1 230505Z 14016G22KT 23/15 A2982 RMK A01 T02340149  RH  062%=      5-min Rain = 0
KLD1 230510Z 14016KT 23/15 A2982 RMK A01 T02320150  RH  063%=      5-min Rain = 0
KLD1 230515Z 14016KT 23/15 A2982 RMK A01 T02330153  RH  064%=      5-min Rain = 0
KLD1 230520Z 14017G23KT 23/16 A2982 RMK A01 T02320157  RH  065%=      5-min Rain = 0
KLD1 230525Z 14018G24KT 23/16 A2982 RMK A01 T02320159  RH  067%=      5-min Rain = 0
KLD1 230530Z 14018G24KT 23/16 A2982 RMK A01 T02320161  RH  067%=      5-min Rain = 0
KLD1 230535Z 14018G23KT 23/16 A2982 RMK A01 T02320162  RH  068%=      5-min Rain = 0
KLD1 230540Z 14019KT 23/16 A2982 RMK A01 T02310163  RH  069%=      5-min Rain = 0
KLD1 230545Z 15019KT 23/17 A2982 RMK A01 T02300165  RH  070%=      5-min Rain = 0
KLD1 230550Z 14020G25KT 23/17 A2982 RMK A01 T02300166  RH  071%=      5-min Rain = 0
KLD1 230555Z 14018G23KT 23/17 A2982 RMK A01 T02300167  RH  071%=      5-min Rain = 0
KLD1 230600Z 15017G22KT 23/17 A2982 RMK A01 T02290168  RH  072%=      5-min Rain = 0
KLD1 230605Z 14018G23KT 23/17 A2982 RMK A01 T02280169  RH  073%=      5-min Rain = 0
KLD1 230610Z 14018KT 23/17 A2982 RMK A01 T02270170  RH  074%=      5-min Rain = 0
KLD1 230615Z 14016KT 23/17 A2982 RMK A01 T02260170  RH  074%=      5-min Rain = 0
KLD1 230620Z 14015KT 23/17 A2982 RMK A01 T02250170  RH  075%=      5-min Rain = 0
KLD1 230625Z 14016KT 22/17 A2982 RMK A01 T02240171  RH  076%=      5-min Rain = 0
KLD1 230630Z 14015G20KT 22/17 A2982 RMK A01 T02240172  RH  076%=      5-min Rain = 0
KLD1 230635Z 14016G23KT 23/17 A2982 RMK A01 T02250173  RH  076%=      5-min Rain = 0
KLD1 230640Z 14016KT 23/17 A2982 RMK A01 T02260174  RH  076%=      5-min Rain = 0
KLD1 230645Z 14015G20KT 23/17 A2982 RMK A01 T02260174  RH  076%=      5-min Rain = 0
KLD1 230650Z 14015G20KT 23/18 A2982 RMK A01 T02260175  RH  077%=      5-min Rain = 0
KLD1 230655Z 14015KT 23/18 A2983 RMK A01 T02270176  RH  077%=      5-min Rain = 0
KLD1 230700Z 14017G22KT 23/18 A2982 RMK A01 T02270177  RH  077%=      5-min Rain = 0
KLD1 230705Z 14017G22KT 23/18 A2983 RMK A01 T02280178  RH  077%=      5-min Rain = 0
KLD1 230710Z 14019KT 23/18 A2983 RMK A01 T02280179  RH  078%=      5-min Rain = 0
KLD1 230715Z 14017G23KT 23/18 A2983 RMK A01 T02280179  RH  078%=      5-min Rain = 0
KLD1 230720Z 14019KT 23/18 A2983 RMK A01 T02270180  RH  079%=      5-min Rain = 0
KLD1 230725Z 14019KT 23/18 A2983 RMK A01 T02270180  RH  079%=      5-min Rain = 0
KLD1 230730Z 15019G24KT 23/18 A2983 RMK A01 T02260180  RH  080%=      5-min Rain = 0
KLD1 230735Z 14017KT 23/18 A2983 RMK A01 T02260180  RH  080%=      5-min Rain = 0
KLD1 230740Z 14016G26KT 23/18 A2983 RMK A01 T02260181  RH  080%=      5-min Rain = 0
KLD1 230745Z 14016G21KT 23/18 A2983 RMK A01 T02250181  RH  080%=      5-min Rain = 0
KLD1 230750Z 14016G21KT 23/18 A2983 RMK A01 T02250181  RH  080%=      5-min Rain = 0
KLD1 230755Z 14016G22KT 23/18 A2983 RMK A01 T02250181  RH  081%=      5-min Rain = 0
KLD1 230800Z 14017G22KT 22/18 A2983 RMK A01 T02240181  RH  081%=      5-min Rain = 0
KLD1 230805Z 14018KT 22/18 A2983 RMK A01 T02240182  RH  081%=      5-min Rain = 0
KLD1 230810Z 15016G21KT 22/18 A2983 RMK A01 T02240182  RH  081%=      5-min Rain = 0
KLD1 230815Z 14016KT 22/18 A2983 RMK A01 T02230182  RH  081%=      5-min Rain = 0
KLD1 230820Z 14016KT 22/18 A2983 RMK A01 T02230182  RH  082%=      5-min Rain = 0
KLD1 230825Z 14016KT 22/18 A2983 RMK A01 T02220182  RH  082%=      5-min Rain = 0
KLD1 230830Z 14016KT 22/18 A2983 RMK A01 T02220182  RH  082%=      5-min Rain = 0
KLD1 230835Z 14015G20KT 22/18 A2983 RMK A01 T02220182  RH  083%=      5-min Rain = 0
KLD1 230840Z 14016KT 22/18 A2983 RMK A01 T02220183  RH  083%=      5-min Rain = 0
KLD1 230845Z 14017KT 22/18 A2983 RMK A01 T02210183  RH  083%=      5-min Rain = 0
KLD1 230850Z 14015KT 22/18 A2983 RMK A01 T02210183  RH  084%=      5-min Rain = 0
KLD1 230855Z 14015KT 22/18 A2984 RMK A01 T02220184  RH  083%=      5-min Rain = 0
KLD1 230900Z 15014KT 22/18 A2984 RMK A01 T02220183  RH  083%=      5-min Rain = 0
KLD1 230905Z 14013G18KT 22/18 A2984 RMK A01 T02220183  RH  083%=      5-min Rain = 0
KLD1 230910Z 14015G20KT 22/18 A2984 RMK A01 T02220184  RH  083%=      5-min Rain = 0
KLD1 230915Z 15016G21KT 22/18 A2983 RMK A01 T02220184  RH  084%=      5-min Rain = 0
KLD1 230920Z 15016KT 22/19 A2983 RMK A01 T02220185  RH  084%=      5-min Rain = 0
KLD1 230925Z 15014KT 22/19 A2983 RMK A01 T02220185  RH  084%=      5-min Rain = 0
KLD1 230930Z 15016KT 22/19 A2984 RMK A01 T02230185  RH  084%=      5-min Rain = 0
KLD1 230935Z 15017KT 22/19 A2984 RMK A01 T02230186  RH  084%=      5-min Rain = 0
KLD1 230940Z 15016G21KT 22/19 A2984 RMK A01 T02230187  RH  084%=      5-min Rain = 0
KLD1 230945Z 15016KT 22/19 A2984 RMK A01 T02240188  RH  085%=      5-min Rain = 0
KLD1 230950Z 15016G21KT 22/19 A2984 RMK A01 T02240188  RH  085%=      5-min Rain = 0
KLD1 230955Z 15015G20KT 22/19 A2984 RMK A01 T02240189  RH  085%=      5-min Rain = 0
KLD1 231000Z 15014G20KT 22/19 A2984 RMK A01 T02240189  RH  085%=      5-min Rain = 0
KLD1 231005Z 15017G22KT 22/19 A2984 RMK A01 T02240189  RH  086%=      5-min Rain = 0
KLD1 231010Z 15015KT 22/19 A2984 RMK A01 T02240190  RH  086%=      5-min Rain = 0
KLD1 231015Z 15015KT 22/19 A2984 RMK A01 T02230190  RH  086%=      5-min Rain = 0
KLD1 231020Z 15015KT 22/19 A2984 RMK A01 T02230190  RH  086%=      5-min Rain = 0
KLD1 231025Z 15015KT 22/19 A2984 RMK A01 T02220190  RH  087%=      5-min Rain = 0
KLD1 231030Z 15015KT 22/19 A2984 RMK A01 T02200189  RH  087%=      5-min Rain = 0
KLD1 231035Z 15015KT 22/19 A2984 RMK A01 T02190189  RH  088%=      5-min Rain = 0
KLD1 231040Z 14014KT 22/19 A2983 RMK A01 T02190190  RH  088%=      5-min Rain = 0
KLD1 231045Z 15014G19KT 22/19 A2983 RMK A01 T02180190  RH  089%=      5-min Rain = 0
KLD1 231050Z 14014KT 22/19 A2983 RMK A01 T02170189  RH  089%=      5-min Rain = 0
KLD1 231055Z 15014KT 22/19 A2984 RMK A01 T02160189  RH  089%=      5-min Rain = 0
KLD1 231100Z 15013KT 22/19 A2983 RMK A01 T02160190  RH  090%=      5-min Rain = 0
KLD1 231105Z 15014KT 22/19 A2983 RMK A01 T02150190  RH  090%=      5-min Rain = 0
KLD1 231110Z 14014KT 22/19 A2983 RMK A01 T02150190  RH  090%=      5-min Rain = 0
KLD1 231115Z 14013KT 22/19 A2983 RMK A01 T02150190  RH  090%=      5-min Rain = 0
KLD1 231120Z 14015KT 21/19 A2983 RMK A01 T02140190  RH  091%=      5-min Rain = 0
KLD1 231125Z 14015G21KT 21/19 A2983 RMK A01 T02140190  RH  091%=      5-min Rain = 0
KLD1 231130Z 14014G19KT 21/19 A2983 RMK A01 T02140190  RH  091%=      5-min Rain = 0
KLD1 231135Z 14014KT 21/19 A2983 RMK A01 T02140190  RH  091%=      5-min Rain = 0
KLD1 231140Z 14014KT 21/19 A2983 RMK A01 T02140190  RH  091%=      5-min Rain = 0
KLD1 231145Z 14014KT 21/19 A2983 RMK A01 T02140189  RH  091%=      5-min Rain = 0
KLD1 231150Z 14012KT 21/19 A2984 RMK A01 T02140189  RH  091%=      5-min Rain = 0
KLD1 231155Z 14013KT 21/19 A2984 RMK A01 T02130189  RH  091%=      5-min Rain = 0
KLD1 231200Z 15012KT 21/19 A2984 RMK A01 T02140189  RH  091%=      5-min Rain = 0
KLD1 231205Z 15013G18KT 21/19 A2984 RMK A01 T02140189  RH  091%=      5-min Rain = 0
KLD1 231210Z 15013KT 21/19 A2985 RMK A01 T02140189  RH  090%=      5-min Rain = 0
KLD1 231215Z 15012KT 22/19 A2985 RMK A01 T02150189  RH  090%=      5-min Rain = 0
KLD1 231220Z 15012KT 22/19 A2985 RMK A01 T02170189  RH  089%=      5-min Rain = 0
KLD1 231225Z 15013KT 22/19 A2986 RMK A01 T02180189  RH  089%=      5-min Rain = 0
KLD1 231230Z 15012G17KT 22/19 A2986 RMK A01 T02180189  RH  088%=      5-min Rain = 0
KLD1 231235Z 15014G19KT 22/19 A2986 RMK A01 T02190189  RH  088%=      5-min Rain = 0
KLD1 231240Z 15014KT 22/19 A2986 RMK A01 T02190189  RH  088%=      5-min Rain = 0
KLD1 231245Z 15014G19KT 22/19 A2986 RMK A01 T02200189  RH  087%=      5-min Rain = 0
KLD1 231250Z 15014KT 22/19 A2986 RMK A01 T02200189  RH  087%=      5-min Rain = 0
KLD1 231255Z 15014KT 22/19 A2986 RMK A01 T02200190  RH  087%=      5-min Rain = 0
KLD1 231300Z 15015KT 22/19 A2987 RMK A01 T02220190  RH  087%=      5-min Rain = 0
KLD1 231305Z 15015KT 22/19 A2987 RMK A01 T02230191  RH  087%=      5-min Rain = 0
KLD1 231310Z 15014KT 23/19 A2987 RMK A01 T02250192  RH  086%=      5-min Rain = 0
KLD1 231315Z 15016KT 23/19 A2987 RMK A01 T02250191  RH  086%=      5-min Rain = 0
KLD1 231320Z 15015G21KT 23/19 A2987 RMK A01 T02250191  RH  086%=      5-min Rain = 0
KLD1 231325Z 15016KT 23/19 A2987 RMK A01 T02250192  RH  086%=      5-min Rain = 0
KLD1 231330Z 15017G25KT 23/19 A2987 RMK A01 T02260191  RH  085%=      5-min Rain = 0
KLD1 231335Z 15017KT 23/19 A2987 RMK A01 T02290193  RH  085%=      5-min Rain = 0
KLD1 231340Z 15017KT 23/19 A2987 RMK A01 T02310193  RH  084%=      5-min Rain = 0
KLD1 231345Z 15019G24KT 23/19 A2987 RMK A01 T02330193  RH  083%=      5-min Rain = 0
KLD1 231350Z 15018KT 23/19 A2987 RMK A01 T02330193  RH  083%=      5-min Rain = 0
KLD1 231355Z 16017KT 24/19 A2987 RMK A01 T02360193  RH  082%=      5-min Rain = 0
KLD1 231400Z 15018G23KT 24/19 A2987 RMK A01 T02380192  RH  080%=      5-min Rain = 0
KLD1 231405Z 16019KT 23/19 A2987 RMK A01 T02340192  RH  082%=      5-min Rain = 0
KLD1 231410Z 16018KT 23/19 A2987 RMK A01 T02340191  RH  081%=      5-min Rain = 0
KLD1 231415Z 16016G21KT 23/19 A2988 RMK A01 T02340192  RH  082%=      5-min Rain = 0
KLD1 231420Z 16017KT 24/19 A2988 RMK A01 T02360192  RH  081%=      5-min Rain = 0
KLD1 231425Z 16017KT 24/19 A2988 RMK A01 T02370191  RH  080%=      5-min Rain = 0
KLD1 231430Z 16018KT 24/19 A2988 RMK A01 T02390192  RH  079%=      5-min Rain = 0
KLD1 231435Z 16018G24KT 24/19 A2988 RMK A01 T02430191  RH  077%=      5-min Rain = 0
KLD1 231440Z 16020KT 24/19 A2988 RMK A01 T02410191  RH  078%=      5-min Rain = 0
KLD1 231445Z 16017G22KT 24/19 A2988 RMK A01 T02440192  RH  077%=      5-min Rain = 0
KLD1 231450Z 16020KT 25/19 A2988 RMK A01 T02510192  RH  074%=      5-min Rain = 0
KLD1 231455Z 17020G25KT 25/19 A2988 RMK A01 T02520191  RH  073%=      5-min Rain = 0
KLD1 231500Z 16021KT 25/19 A2988 RMK A01 T02530190  RH  072%=      5-min Rain = 0
KLD1 231505Z 16022G27KT 26/19 A2988 RMK A01 T02550189  RH  071%=      5-min Rain = 0
KLD1 231510Z 17023KT 26/19 A2988 RMK A01 T02560188  RH  070%=      5-min Rain = 0
KLD1 231515Z 16022KT 26/19 A2988 RMK A01 T02590189  RH  069%=      5-min Rain = 0
KLD1 231520Z 17019G25KT 26/19 A2988 RMK A01 T02600189  RH  069%=      5-min Rain = 0
KLD1 231525Z 16022KT 26/19 A2988 RMK A01 T02630189  RH  068%=      5-min Rain = 0
KLD1 231530Z 16023G28KT 27/19 A2988 RMK A01 T02660188  RH  066%=      5-min Rain = 0
KLD1 231535Z 17021KT 27/19 A2988 RMK A01 T02650187  RH  066%=      5-min Rain = 0
KLD1 231540Z 16021KT 27/19 A2988 RMK A01 T02670187  RH  065%=      5-min Rain = 0
KLD1 231545Z 16022KT 26/19 A2988 RMK A01 T02640186  RH  066%=      5-min Rain = 0
KLD1 231550Z 16022G27KT 26/19 A2988 RMK A01 T02640185  RH  065%=      5-min Rain = 0
KLD1 231555Z 17022G27KT 27/18 A2988 RMK A01 T02700184  RH  063%=      5-min Rain = 0
KLD1 231600Z 17023G28KT 27/18 A2988 RMK A01 T02710184  RH  062%=      5-min Rain = 0
KLD1 231605Z 17023KT 28/18 A2988 RMK A01 T02750182  RH  060%=      5-min Rain = 0
KLD1 231610Z 18021G26KT 28/18 A2988 RMK A01 T02750182  RH  060%=      5-min Rain = 0
KLD1 231615Z 17023G29KT 27/18 A2988 RMK A01 T02720180  RH  060%=      5-min Rain = 0
KLD1 231620Z 18022G28KT 28/18 A2988 RMK A01 T02770181  RH  059%=      5-min Rain = 0
KLD1 231625Z 17022G27KT 28/18 A2988 RMK A01 T02770181  RH  059%=      5-min Rain = 0
KLD1 231630Z 17021G27KT 28/18 A2988 RMK A01 T02790177  RH  057%=      5-min Rain = 0
KLD1 231635Z 17023KT 28/18 A2988 RMK A01 T02830178  RH  056%=      5-min Rain = 0
KLD1 231640Z 17023KT 28/18 A2988 RMK A01 T02790176  RH  056%=      5-min Rain = 0
KLD1 231645Z 16020G26KT 28/18 A2988 RMK A01 T02770180  RH  059%=      5-min Rain = 0
KLD1 231650Z 17021G26KT 28/18 A2988 RMK A01 T02810179  RH  057%=      5-min Rain = 0
KLD1 231655Z 17022G27KT 29/18 A2987 RMK A01 T02870179  RH  055%=      5-min Rain = 0
KLD1 231700Z 17020G25KT 29/18 A2988 RMK A01 T02890178  RH  054%=      5-min Rain = 0
KLD1 231705Z 16022G32KT 28/18 A2988 RMK A01 T02820178  RH  056%=      5-min Rain = 0
KLD1 231710Z 17022G28KT 28/18 A2988 RMK A01 T02800178  RH  057%=      5-min Rain = 0
KLD1 231715Z 17020G26KT 29/18 A2988 RMK A01 T02880176  RH  054%=      5-min Rain = 0
KLD1 231720Z 17018G23KT 28/18 A2988 RMK A01 T02820176  RH  055%=      5-min Rain = 0
KLD1 231725Z 17021G26KT 29/17 A2987 RMK A01 T02880174  RH  053%=      5-min Rain = 0
KLD1 231730Z 17021G29KT 29/17 A2987 RMK A01 T02940171  RH  050%=      5-min Rain = 0
KLD1 231735Z 16022G27KT 29/17 A2987 RMK A01 T02940170  RH  050%=      5-min Rain = 0
KLD1 231740Z 16020G28KT 29/17 A2987 RMK A01 T02930171  RH  050%=      5-min Rain = 0
KLD1 231745Z 18020G26KT 30/17 A2987 RMK A01 T02970170  RH  049%=      5-min Rain = 0
KLD1 231750Z 16022G27KT 30/17 A2987 RMK A01 T02990169  RH  048%=      5-min Rain = 0
KLD1 231755Z 16022G28KT 30/17 A2987 RMK A01 T03040170  RH  047%=      5-min Rain = 0
KLD1 231800Z 16022G27KT 30/17 A2986 RMK A01 T03000172  RH  048%=      5-min Rain = 0
KLD1 231805Z 16023G29KT 30/17 A2986 RMK A01 T03040167  RH  046%=      5-min Rain = 0
KLD1 231810Z 17023G31KT 30/17 A2986 RMK A01 T03020170  RH  047%=      5-min Rain = 0
KLD1 231815Z 17021G29KT 31/16 A2986 RMK A01 T03070163  RH  044%=      5-min Rain = 0
KLD1 231820Z 17022G29KT 31/16 A2986 RMK A01 T03090163  RH  043%=      5-min Rain = 0
KLD1 231825Z 17022G28KT 31/16 A2986 RMK A01 T03090164  RH  044%=      5-min Rain = 0
KLD1 231830Z 17022G28KT 31/16 A2986 RMK A01 T03090159  RH  042%=      5-min Rain = 0
KLD1 231835Z 17020G26KT 31/16 A2985 RMK A01 T03140162  RH  042%=      5-min Rain = 0
KLD1 231840Z 17020G28KT 31/16 A2985 RMK A01 T03070162  RH  044%=      5-min Rain = 0
KLD1 231845Z 17020G29KT 31/16 A2985 RMK A01 T03090164  RH  044%=      5-min Rain = 0
KLD1 231850Z 16021G28KT 31/16 A2985 RMK A01 T03070163  RH  044%=      5-min Rain = 0
KLD1 231855Z 16021G28KT 30/16 A2985 RMK A01 T03020164  RH  045%=      5-min Rain = 0
KLD1 231900Z 16021G31KT 30/16 A2985 RMK A01 T03020163  RH  045%=      5-min Rain = 0
KLD1 231905Z 18021G27KT 31/16 A2985 RMK A01 T03050162  RH  044%=      5-min Rain = 0
KLD1 231910Z 17021G30KT 31/16 A2985 RMK A01 T03110162  RH  043%=      5-min Rain = 0
KLD1 231915Z 16021G26KT 31/16 A2985 RMK A01 T03090164  RH  044%=      5-min Rain = 0
KLD1 231920Z 17020G27KT 31/16 A2984 RMK A01 T03110159  RH  042%=      5-min Rain = 0
KLD1 231925Z 17021G28KT 32/16 A2984 RMK A01 T03180159  RH  040%=      5-min Rain = 0
KLD1 231930Z 16023G29KT 32/16 A2984 RMK A01 T03200158  RH  039%=      5-min Rain = 0
KLD1 231935Z 16022G32KT 32/16 A2984 RMK A01 T03170159  RH  040%=      5-min Rain = 0
KLD1 231940Z 16021G28KT 31/16 A2984 RMK A01 T03100158  RH  042%=      5-min Rain = 0
KLD1 231945Z 17020G29KT 32/16 A2984 RMK A01 T03170156  RH  040%=      5-min Rain = 0
KLD1 231950Z 16020G30KT 32/16 A2984 RMK A01 T03170155  RH  039%=      5-min Rain = 0
KLD1 231955Z 17021KT 32/16 A2984 RMK A01 T03190156  RH  039%=      5-min Rain = 0
KLD1 232000Z 16021G27KT 32/16 A2984 RMK A01 T03210158  RH  039%=      5-min Rain = 0
KLD1 232005Z 16023G32KT 33/15 A2983 RMK A01 T03250153  RH  037%=      5-min Rain = 0
KLD1 232010Z 16021G27KT 32/15 A2983 RMK A01 T03190154  RH  039%=      5-min Rain = 0
KLD1 232015Z 17021G31KT 32/16 A2983 RMK A01 T03180156  RH  039%=      5-min Rain = 0
KLD1 232020Z 16025G31KT 32/16 A2983 RMK A01 T03200162  RH  040%=      5-min Rain = 0
KLD1 232025Z 15022G28KT 31/16 A2983 RMK A01 T03130162  RH  042%=      5-min Rain = 0
KLD1 232030Z 16025G32KT 31/16 A2983 RMK A01 T03120161  RH  042%=      5-min Rain = 0
KLD1 232035Z 15024G32KT 31/16 A2983 RMK A01 T03130160  RH  042%=      5-min Rain = 0
KLD1 232040Z 16022G31KT 32/16 A2983 RMK A01 T03180159  RH  040%=      5-min Rain = 0
KLD1 232045Z 16020G28KT 32/16 A2983 RMK A01 T03180159  RH  040%=      5-min Rain = 0
KLD1 232050Z 16023G31KT 31/16 A2983 RMK A01 T03130157  RH  041%=      5-min Rain = 0
KLD1 232055Z 16022G28KT 32/16 A2983 RMK A01 T03160157  RH  040%=      5-min Rain = 0
KLD1 232100Z 15022G30KT 31/16 A2983 RMK A01 T03130157  RH  041%=      5-min Rain = 0
KLD1 232105Z 15022G29KT 31/16 A2983 RMK A01 T03100156  RH  041%=      5-min Rain = 0
KLD1 232110Z 16022G27KT 31/16 A2982 RMK A01 T03090155  RH  041%=      5-min Rain = 0
KLD1 232115Z 16023G29KT 31/15 A2982 RMK A01 T03070152  RH  041%=      5-min Rain = 0
KLD1 232120Z 16022G29KT 30/15 A2982 RMK A01 T03040152  RH  042%=      5-min Rain = 0
KLD1 232125Z 16021G26KT 30/15 A2982 RMK A01 T03020152  RH  042%=      5-min Rain = 0
KLD1 232130Z 16021G27KT 30/15 A2982 RMK A01 T02990152  RH  043%=      5-min Rain = 0
KLD1 232135Z 15023KT 30/16 A2982 RMK A01 T02960155  RH  044%=      5-min Rain = 0
KLD1 232140Z 15023G28KT 29/15 A2982 RMK A01 T02920153  RH  045%=      5-min Rain = 0
KLD1 232145Z 16023G28KT 29/15 A2982 RMK A01 T02900154  RH  046%=      5-min Rain = 0
KLD1 232150Z 16022KT 29/15 A2982 RMK A01 T02880153  RH  046%=      5-min Rain = 0
KLD1 232155Z 16020G25KT 29/15 A2983 RMK A01 T02870151  RH  045%=      5-min Rain = 0
KLD1 232200Z 16022G27KT 29/15 A2983 RMK A01 T02860152  RH  046%=      5-min Rain = 0
KLD1 232205Z 15021KT 28/15 A2982 RMK A01 T02840154  RH  047%=      5-min Rain = 0
KLD1 232210Z 15023KT 28/16 A2982 RMK A01 T02820155  RH  048%=      5-min Rain = 0
KLD1 232215Z 15022G27KT 28/16 A2982 RMK A01 T02800156  RH  049%=      5-min Rain = 0
KLD1 232220Z 16021G29KT 28/16 A2983 RMK A01 T02790157  RH  050%=      5-min Rain = 0
KLD1 232225Z 16021G27KT 28/16 A2984 RMK A01 T02770158  RH  050%=      5-min Rain = 0
KLD1 232230Z 16018KT 27/16 A2983 RMK A01 T02740162  RH  053%=      5-min Rain = 0
KLD1 232235Z 16020G26KT 27/17 A2984 RMK A01 T02670168  RH  057%=      5-min Rain = 0
KLD1 232240Z 16020G26KT 26/17 A2984 RMK A01 T02590171  RH  061%=      5-min Rain = 0
KLD1 232245Z 17021G26KT 26/17 A2985 RMK A01 T02560171  RH  063%=      5-min Rain = 0
KLD1 232250Z 17022KT 25/17 A2985 RMK A01 T02470174  RH  067%=      5-min Rain = 0
KLD1 232255Z 17024G29KT 23/18 A2984 RMK A01 T02330175  RH  073%=      5-min Rain = 0.01
KLD1 232300Z 16025G31KT 22/17 A2984 RMK A01 T02200173  RH  078%=      5-min Rain = 0.04
KLD1 232305Z 16020G26KT 22/18 A2984 RMK A01 T02150175  RH  082%=      5-min Rain = 0
KLD1 232310Z 16018G24KT 22/17 A2983 RMK A01 T02160173  RH  080%=      5-min Rain = 0.01
KLD1 232315Z 16018KT 21/18 A2984 RMK A01 T02140176  RH  083%=      5-min Rain = 0
KLD1 232320Z 14015G21KT 21/18 A2983 RMK A01 T02120176  RH  084%=      5-min Rain = 0
KLD1 232325Z 14017KT 21/17 A2983 RMK A01 T02080173  RH  085%=      5-min Rain = 0
KLD1 232330Z 14016KT 20/17 A2983 RMK A01 T02000165  RH  084%=      5-min Rain = 0
KLD1 232335Z 14015G20KT 20/15 A2983 RMK A01 T02000151  RH  077%=      5-min Rain = 0.01
KLD1 232340Z 13015KT 20/15 A2983 RMK A01 T02020152  RH  076%=      5-min Rain = 0
KLD1 232345Z 12013G18KT 20/15 A2981 RMK A01 T02010152  RH  076%=      5-min Rain = 0
KLD1 232350Z 12014KT 20/16 A2981 RMK A01 T02010156  RH  079%=      5-min Rain = 0
KLD1 232355Z 11017KT 20/16 A2981 RMK A01 T02030157  RH  079%=      5-min Rain = 0.01
KLD1 240000Z 11014KT 20/16 A298 RMK A01 T02040160  RH  080%=      5-min Rain = 0
KLD1 240005Z 11012KT 21/16 A2981 RMK A01 T02080159  RH  077%=      5-min Rain = 0.01
KLD1 240010Z 12013KT 21/16 A2982 RMK A01 T02110156  RH  074%=      5-min Rain = 0.05
KLD1 240015Z 11015KT 21/16 A2981 RMK A01 T02050159  RH  079%=      5-min Rain = 0.06
KLD1 240020Z 10014KT 20/16 A2979 RMK A01 T02030163  RH  082%=      5-min Rain = 0.01
KLD1 240025Z 10014G20KT 20/17 A298 RMK A01 T02040167  RH  083%=      5-min Rain = 0
KLD1 240030Z 10010G15KT 21/17 A2982 RMK A01 T02080165  RH  080%=      5-min Rain = 0.01
KLD1 240035Z 09009KT 21/17 A2982 RMK A01 T02080167  RH  081%=      5-min Rain = 0
KLD1 240040Z 10008G15KT 21/17 A2982 RMK A01 T02100171  RH  082%=      5-min Rain = 0
KLD1 240045Z 10015KT 21/18 A2982 RMK A01 T02130180  RH  086%=      5-min Rain = 0
KLD1 240050Z 10014G19KT 21/18 A2983 RMK A01 T02130183  RH  087%=      5-min Rain = 0
KLD1 240055Z 10018G24KT 22/18 A2982 RMK A01 T02150180  RH  085%=      5-min Rain = 0
KLD1 240100Z 10024G30KT 21/17 A2982 RMK A01 T02080165  RH  080%=      5-min Rain = 0
KLD1 240105Z 09020G25KT 20/16 A2982 RMK A01 T02030161  RH  080%=      5-min Rain = 0
KLD1 240110Z 09018G23KT 20/16 A2984 RMK A01 T01970158  RH  082%=      5-min Rain = 0
KLD1 240115Z 09017KT 20/16 A2984 RMK A01 T01960157  RH  082%=      5-min Rain = 0
KLD1 240120Z 08018G24KT 20/15 A2984 RMK A01 T01960153  RH  080%=      5-min Rain = 0
KLD1 240125Z 08022KT 19/14 A2982 RMK A01 T01910143  RH  077%=      5-min Rain = 0
KLD1 240130Z 07022G27KT 19/14 A2982 RMK A01 T01890137  RH  075%=      5-min Rain = 0
KLD1 240135Z 06023G30KT 19/14 A2981 RMK A01 T01920139  RH  074%=      5-min Rain = 0
KLD1 240140Z 05024KT 19/14 A2982 RMK A01 T01920136  RH  073%=      5-min Rain = 0
KLD1 240145Z 05026KT 19/14 A2982 RMK A01 T01940135  RH  072%=      5-min Rain = 0
KLD1 240150Z 06025G30KT 20/13 A298 RMK A01 T01960134  RH  070%=      5-min Rain = 0
KLD1 240155Z 06024G30KT 20/14 A298 RMK A01 T01990136  RH  070%=      5-min Rain = 0
KLD1 240200Z 26015G24KT 20/14 A2987 RMK A01 T02020139  RH  070%=      5-min Rain = 0
KLD1 240205Z 27021G43KT 21/14 A2988 RMK A01 T02080143  RH  070%=      5-min Rain = 0
KLD1 240210Z 31021G30KT 20/13 A299 RMK A01 T02010132  RH  067%=      5-min Rain = 0
KLD1 240215Z 34018G26KT 21/13 A299 RMK A01 T02140131  RH  062%=      5-min Rain = 0
KLD1 240220Z 35008G13KT 22/12 A2992 RMK A01 T02200123  RH  056%=      5-min Rain = 0
KLD1 240225Z 04010G15KT 21/13 A2991 RMK A01 T02080127  RH  062%=      5-min Rain = 0
KLD1 240230Z 08013G19KT 21/13 A299 RMK A01 T02110133  RH  063%=      5-min Rain = 0
KLD1 240235Z 06018KT 21/13 A2989 RMK A01 T02100130  RH  063%=      5-min Rain = 0
KLD1 240240Z 06015G20KT 20/13 A2989 RMK A01 T01990133  RH  068%=      5-min Rain = 0
KLD1 240245Z 05012G18KT 20/13 A299 RMK A01 T01960129  RH  068%=      5-min Rain = 0
KLD1 240250Z 03015G20KT 20/13 A2992 RMK A01 T01980126  RH  066%=      5-min Rain = 0
KLD1 240255Z 03015G20KT 19/13 A2992 RMK A01 T01920129  RH  070%=      5-min Rain = 0
KLD1 240300Z 04014KT 19/13 A2991 RMK A01 T01880130  RH  072%=      5-min Rain = 0
KLD1 240305Z 05014G19KT 19/13 A2991 RMK A01 T01880130  RH  072%=      5-min Rain = 0
KLD1 240310Z 04017KT 19/13 A2992 RMK A01 T01930126  RH  068%=      5-min Rain = 0
KLD1 240315Z 03012KT 19/13 A2993 RMK A01 T01920131  RH  070%=      5-min Rain = 0
KLD1 240320Z 03011G16KT 19/13 A2994 RMK A01 T01920129  RH  069%=      5-min Rain = 0
KLD1 240325Z 02012KT 19/13 A2994 RMK A01 T01930125  RH  067%=      5-min Rain = 0
KLD1 240330Z 02013KT 19/12 A2994 RMK A01 T01930124  RH  067%=      5-min Rain = 0
KLD1 240335Z 01012KT 19/12 A2995 RMK A01 T01930124  RH  067%=      5-min Rain = 0
KLD1 240340Z 00014KT 20/12 A2996 RMK A01 T01950121  RH  065%=      5-min Rain = 0
KLD1 240345Z 36012KT 20/12 A2996 RMK A01 T01950121  RH  065%=      5-min Rain = 0
KLD1 240350Z 00012G19KT 20/11 A2996 RMK A01 T01970109  RH  059%=      5-min Rain = 0
KLD1 240355Z 04012G17KT 19/10 A2996 RMK A01 T01940100  RH  056%=      5-min Rain = 0
KLD1 240400Z 03015G20KT 19/11 A2995 RMK A01 T01890105  RH  060%=      5-min Rain = 0
KLD1 240405Z 04013G19KT 19/12 A2995 RMK A01 T01860118  RH  067%=      5-min Rain = 0
KLD1 240410Z 05009G15KT 19/12 A2996 RMK A01 T01850120  RH  069%=      5-min Rain = 0
KLD1 240415Z 03010G20KT 19/12 A2996 RMK A01 T01850116  RH  067%=      5-min Rain = 0
KLD1 240420Z 02011G17KT 18/11 A2997 RMK A01 T01840114  RH  066%=      5-min Rain = 0
KLD1 240425Z 01017G22KT 18/11 A2997 RMK A01 T01830113  RH  066%=      5-min Rain = 0
KLD1 240430Z 36018G24KT 18/12 A2997 RMK A01 T01770117  RH  071%=      5-min Rain = 0
KLD1 240435Z 01020KT 17/12 A2997 RMK A01 T01700120  RH  075%=      5-min Rain = 0
KLD1 240440Z 00016G21KT 17/13 A2998 RMK A01 T01650125  RH  080%=      5-min Rain = 0
KLD1 240445Z 35012G18KT 16/13 A2998 RMK A01 T01610130  RH  085%=      5-min Rain = 0
KLD1 240450Z 33016G22KT 16/13 A2996 RMK A01 T01640129  RH  083%=      5-min Rain = 0
KLD1 240455Z 32014G20KT 16/13 A2997 RMK A01 T01600131  RH  086%=      5-min Rain = 0

Page generated in 0.0237 seconds.